New River, North Carolina
Current Conditions -  °F | °C
As of 3:56 PM on Friday 24 Oct 2014 (Local Time) from KNCA Reporting Station
Clear Clear  
Wind Chill: 70°   Ceiling: Unl
Heat Index: 70°   Visibility: 10mi
Dew Point: 47°   Wind: 6mph
Humidity: 44%   Direction: NA
Pressure: 29.95"   Gusts: NA
Location:  34.7°N, 77.43°W
Report Text: KNCA 241956Z AUTO VRB05KT 10SM CLR 21/08 A2995 RMK AO2 SLP145 T02110083
Loading
Personal Weather Stations






























Interactive Weather Map
Tropical Storm Tracking
New forecast layout! Learn more

10-Day Weather Forecast

Advertisements
Track Severe Weather on mobile